createdAt,value
2023-01-19T00:00:08.923Z,91.59
2023-01-19T00:00:41.102Z,91.67
2023-01-19T00:01:15.918Z,91.66
2023-01-19T00:01:48.104Z,92.03
2023-01-19T00:02:20.376Z,91.98
2023-01-19T00:02:55.268Z,92.06
2023-01-19T00:03:27.442Z,91.67
2023-01-19T00:03:59.715Z,91.69
2023-01-19T00:04:34.376Z,91.67
2023-01-19T00:05:09.995Z,92.02
2023-01-19T00:05:42.930Z,91.82
2023-01-19T00:06:17.706Z,91.76
2023-01-19T00:06:49.861Z,91.79
2023-01-19T00:07:21.920Z,91.97
2023-01-19T00:07:56.727Z,91.88
2023-01-19T00:08:28.852Z,91.68
2023-01-19T00:09:01.129Z,91.90
2023-01-19T00:09:38.423Z,92.07
2023-01-19T00:10:11.639Z,91.87
2023-01-19T00:10:45.883Z,91.98
2023-01-19T00:11:21.077Z,92.20
2023-01-19T00:11:53.202Z,92.18
2023-01-19T00:12:26.003Z,92.18
2023-01-19T00:13:01.142Z,92.37
2023-01-19T00:13:33.627Z,92.60
2023-01-19T00:14:05.907Z,92.34
2023-01-19T00:14:40.594Z,92.35
2023-01-19T00:15:13.002Z,92.37
2023-01-19T00:15:46.070Z,92.37
2023-01-19T00:16:23.285Z,92.35
2023-01-19T00:16:55.458Z,92.30
2023-01-19T00:17:27.592Z,92.68
2023-01-19T00:18:02.375Z,92.32
2023-01-19T00:18:34.513Z,92.33
2023-01-19T00:19:09.284Z,92.51
2023-01-19T00:19:41.417Z,92.26
2023-01-19T00:20:16.554Z,92.14
2023-01-19T00:20:51.845Z,92.14
2023-01-19T00:21:24.710Z,91.93
2023-01-19T00:21:56.936Z,92.07
2023-01-19T00:22:31.662Z,92.25
2023-01-19T00:23:04.956Z,91.81
2023-01-19T00:23:37.230Z,91.65
2023-01-19T00:24:14.009Z,91.81
2023-01-19T00:24:46.151Z,91.90
2023-01-19T00:25:18.288Z,91.97
2023-01-19T00:25:53.205Z,92.12
2023-01-19T00:26:25.466Z,91.98
2023-01-19T00:26:57.538Z,91.77
2023-01-19T00:27:35.053Z,92.04
2023-01-19T00:28:07.225Z,92.16
2023-01-19T00:28:39.352Z,92.09
2023-01-19T00:29:16.156Z,91.72
2023-01-19T00:29:48.262Z,91.69
2023-01-19T00:30:20.521Z,91.88
2023-01-19T00:30:55.238Z,91.82
2023-01-19T00:31:30.105Z,91.94
2023-01-19T00:32:05.693Z,92.03
2023-01-19T00:32:37.752Z,91.67
2023-01-19T00:33:10.630Z,91.94
2023-01-19T00:33:48.922Z,91.85
2023-01-19T00:34:21.077Z,92.00
2023-01-19T00:34:53.273Z,91.65
2023-01-19T00:35:31.546Z,91.96
2023-01-19T00:36:04.060Z,91.98
2023-01-19T00:36:38.728Z,91.92
2023-01-19T00:37:10.851Z,91.53
2023-01-19T00:37:46.143Z,91.80
2023-01-19T00:38:20.963Z,91.48
2023-01-19T00:38:53.179Z,91.56
2023-01-19T00:39:25.398Z,91.99
2023-01-19T00:40:00.116Z,91.49
2023-01-19T00:40:32.312Z,91.85
2023-01-19T00:41:04.422Z,91.98
2023-01-19T00:41:51.584Z,91.61
2023-01-19T00:42:38.709Z,91.57
2023-01-19T00:43:13.534Z,91.79
2023-01-19T00:43:45.679Z,91.45
2023-01-19T00:44:17.836Z,91.65
2023-01-19T00:44:50.002Z,91.49
2023-01-19T00:45:26.991Z,91.45
2023-01-19T00:45:59.235Z,91.45
2023-01-19T00:46:31.373Z,91.47
2023-01-19T00:47:06.117Z,91.26
2023-01-19T00:47:39.335Z,91.16
2023-01-19T00:48:11.516Z,91.25
2023-01-19T00:48:46.349Z,91.55
2023-01-19T00:49:18.756Z,91.43
2023-01-19T00:49:50.950Z,91.58
2023-01-19T00:50:24.237Z,91.43
2023-01-19T00:51:01.671Z,91.31
2023-01-19T00:51:33.846Z,91.18
2023-01-19T00:52:06.278Z,91.42
2023-01-19T00:52:38.413Z,91.24
2023-01-19T00:53:13.085Z,91.62
2023-01-19T00:53:45.230Z,91.19
2023-01-19T00:54:17.811Z,91.24
2023-01-19T00:54:52.581Z,91.52
2023-01-19T00:55:24.690Z,91.50
2023-01-19T00:55:56.794Z,91.40
2023-01-19T00:56:31.467Z,91.14
2023-01-19T00:57:03.766Z,91.33
2023-01-19T00:57:39.035Z,91.23
2023-01-19T00:58:11.222Z,91.03
2023-01-19T00:58:43.383Z,91.42
2023-01-19T00:59:18.151Z,91.02
2023-01-19T04:41:11.497Z,96.89
2023-01-19T04:41:44.059Z,96.98
2023-01-19T04:42:16.987Z,96.97
2023-01-19T04:42:51.755Z,96.48
2023-01-19T04:43:24.313Z,96.80
2023-01-19T04:43:56.470Z,96.65
2023-01-19T04:44:31.778Z,96.49
2023-01-19T04:45:04.597Z,96.70
2023-01-19T04:45:37.134Z,96.80
2023-01-19T04:46:11.839Z,96.90
2023-01-19T04:46:44.024Z,96.79
2023-01-19T04:47:16.186Z,97.07
2023-01-19T04:47:50.928Z,96.96
2023-01-19T04:48:23.044Z,97.02
2023-01-19T04:48:55.197Z,97.12
2023-01-19T04:49:30.168Z,97.36
2023-01-19T04:50:02.726Z,97.32
2023-01-19T04:50:34.913Z,97.28
2023-01-19T04:51:09.884Z,97.03
2023-01-19T04:51:42.046Z,97.09
2023-01-19T04:52:14.166Z,97.26
2023-01-19T04:52:49.526Z,97.33
2023-01-19T04:53:21.682Z,97.40
2023-01-19T04:53:53.777Z,97.43
2023-01-19T04:54:28.934Z,97.14
2023-01-19T04:55:01.174Z,97.46
2023-01-19T04:55:33.482Z,97.32
2023-01-19T04:56:11.217Z,97.06
2023-01-19T04:56:43.311Z,97.42
2023-01-19T04:57:15.452Z,97.37
2023-01-19T04:57:50.163Z,96.90
2023-01-19T04:58:22.576Z,97.27
2023-01-19T04:58:54.718Z,96.92
2023-01-19T04:59:29.456Z,96.65
2023-01-19T05:00:01.602Z,96.74
2023-01-19T05:00:33.889Z,96.57
2023-01-19T05:01:11.286Z,96.41
2023-01-19T05:01:50.694Z,96.29
2023-01-19T05:02:28.606Z,96.46
2023-01-19T05:03:06.386Z,96.56
2023-01-19T05:03:38.677Z,96.03
2023-01-19T05:04:10.897Z,96.32
2023-01-19T05:04:47.985Z,95.50
2023-01-19T05:05:30.438Z,95.61
2023-01-19T05:06:05.198Z,95.64
2023-01-19T05:06:37.839Z,95.68
2023-01-19T05:07:12.294Z,95.68
2023-01-19T05:07:49.739Z,95.36
2023-01-19T05:08:21.828Z,95.48
2023-01-19T05:08:53.967Z,95.36
2023-01-19T05:09:29.180Z,95.65
2023-01-19T05:10:01.437Z,95.13
2023-01-19T05:10:34.006Z,94.91
2023-01-19T05:11:11.411Z,94.86
2023-01-19T05:11:43.570Z,95.15
2023-01-19T05:12:15.917Z,95.18
2023-01-19T05:12:51.370Z,94.91
2023-01-19T05:13:26.270Z,95.06
2023-01-19T05:13:58.578Z,94.95
2023-01-19T05:14:33.241Z,94.47
2023-01-19T05:15:07.943Z,94.66
2023-01-19T05:15:40.096Z,94.65
2023-01-19T05:16:17.393Z,94.42
2023-01-19T05:16:49.542Z,94.67
2023-01-19T05:17:21.692Z,94.17
2023-01-19T05:17:58.141Z,94.04
2023-01-19T05:18:36.020Z,94.05
2023-01-19T05:19:10.980Z,94.19
2023-01-19T05:19:43.126Z,94.06
2023-01-19T05:20:16.459Z,94.11
2023-01-19T05:20:51.409Z,93.69
2023-01-19T05:21:23.564Z,93.94
2023-01-19T05:21:59.717Z,93.70
2023-01-19T05:22:34.423Z,94.14
2023-01-19T05:23:06.615Z,93.86
2023-01-19T05:23:38.998Z,93.56
2023-01-19T05:24:15.456Z,93.74
2023-01-19T05:24:47.569Z,93.67
2023-01-19T05:25:20.180Z,93.31
2023-01-19T05:25:56.458Z,93.52
2023-01-19T05:26:31.247Z,93.43
2023-01-19T05:27:03.603Z,93.39
2023-01-19T05:27:38.799Z,92.98
2023-01-19T05:28:11.325Z,93.15
2023-01-19T05:28:43.478Z,92.91
2023-01-19T05:29:18.476Z,92.90
2023-01-19T05:29:50.570Z,92.81
2023-01-19T05:30:22.830Z,92.61
2023-01-19T05:30:57.728Z,92.55
2023-01-19T05:31:30.106Z,92.50
2023-01-19T05:32:02.457Z,92.76
2023-01-19T05:32:37.250Z,92.75
2023-01-19T05:33:09.490Z,92.62
2023-01-19T05:33:42.618Z,92.02
2023-01-19T05:34:17.694Z,92.31
2023-01-19T05:34:49.812Z,91.98
2023-01-19T05:35:31.359Z,91.85
2023-01-19T05:36:10.455Z,92.06
2023-01-19T05:36:45.460Z,91.77
2023-01-19T05:37:17.667Z,91.55
2023-01-19T05:37:55.636Z,91.64
2023-01-19T05:38:35.501Z,91.68
2023-01-19T05:39:08.630Z,91.33
2023-01-19T05:39:43.366Z,91.36
2023-01-19T05:40:16.117Z,91.36
2023-01-19T05:40:48.553Z,91.22
2023-01-19T05:41:23.389Z,91.19
2023-01-19T05:41:58.071Z,91.39
2023-01-19T05:42:33.071Z,91.54
2023-01-19T05:43:05.559Z,91.00
2023-01-19T05:43:40.379Z,91.03
2023-01-19T05:44:12.967Z,90.77
2023-01-19T05:44:45.119Z,90.87
2023-01-19T05:45:20.216Z,91.00
2023-01-19T05:45:58.387Z,90.60
2023-01-19T05:46:36.655Z,90.71
2023-01-19T05:47:11.918Z,90.85
2023-01-19T05:47:44.037Z,90.80
2023-01-19T05:48:18.808Z,90.57
2023-01-19T05:48:51.450Z,90.36
2023-01-19T05:49:36.155Z,90.54
2023-01-19T05:50:12.140Z,90.36
2023-01-19T05:50:47.278Z,90.44
2023-01-19T05:51:19.520Z,90.12
2023-01-19T05:51:59.316Z,90.10
2023-01-19T05:52:31.547Z,89.79
2023-01-19T05:53:04.099Z,89.66
2023-01-19T05:53:39.012Z,89.05
2023-01-19T05:54:15.394Z,88.91
2023-01-19T05:54:48.341Z,88.86
2023-01-19T05:55:23.624Z,88.81
2023-01-19T05:56:00.424Z,88.43
2023-01-19T05:56:39.520Z,88.55
2023-01-19T05:57:14.615Z,88.51
2023-01-19T05:57:49.382Z,88.24
2023-01-19T05:58:21.611Z,88.32
2023-01-19T05:58:53.821Z,88.59
2023-01-19T05:59:28.606Z,88.65
2023-01-19T06:00:03.492Z,88.62
2023-01-19T06:00:41.331Z,88.92
2023-01-19T06:01:16.109Z,89.00
2023-01-19T06:01:48.285Z,88.55
2023-01-19T06:02:21.816Z,88.61
2023-01-19T06:02:56.842Z,87.98
2023-01-19T06:03:29.136Z,88.17
2023-01-19T06:04:03.969Z,88.14
2023-01-19T06:04:36.268Z,87.60
2023-01-19T06:05:12.057Z,88.03
2023-01-19T06:05:44.221Z,87.88
2023-01-19T06:06:17.283Z,87.70
2023-01-19T06:06:52.440Z,87.21
2023-01-19T06:07:25.649Z,87.58
2023-01-19T06:07:58.759Z,87.30
2023-01-19T06:08:33.881Z,87.09
2023-01-19T06:09:07.893Z,87.24
2023-01-19T06:09:40.088Z,87.41
2023-01-19T06:10:16.016Z,87.40
2023-01-19T06:10:50.586Z,87.22
2023-01-19T06:11:22.742Z,87.20
2023-01-19T06:11:56.659Z,87.46
2023-01-19T06:12:35.259Z,87.31
2023-01-19T06:13:09.563Z,87.02
2023-01-19T06:13:42.261Z,87.00
2023-01-19T06:14:17.215Z,86.93
2023-01-19T06:14:49.408Z,87.37
2023-01-19T06:15:21.641Z,87.03
2023-01-19T06:16:00.622Z,86.85
2023-01-19T06:16:32.799Z,87.08
2023-01-19T06:17:06.210Z,87.20
2023-01-19T06:17:40.940Z,87.21
2023-01-19T06:18:14.882Z,87.15
2023-01-19T06:18:46.998Z,87.12
2023-01-19T06:19:21.749Z,87.15
2023-01-19T06:19:53.954Z,87.20
2023-01-19T06:20:26.384Z,87.33
2023-01-19T06:21:01.705Z,87.06
2023-01-19T06:21:34.446Z,87.31
2023-01-19T06:22:09.754Z,87.30
2023-01-19T06:22:41.891Z,87.51
2023-01-19T06:23:14.077Z,87.47
2023-01-19T06:23:48.872Z,87.34
2023-01-19T06:24:21.009Z,87.44
2023-01-19T06:24:53.136Z,87.29
2023-01-19T06:25:31.134Z,87.33
2023-01-19T06:26:03.938Z,87.60
2023-01-19T06:26:36.252Z,88.04
2023-01-19T06:27:11.496Z,87.55
2023-01-19T06:27:48.845Z,87.63
2023-01-19T06:28:21.087Z,87.77
2023-01-19T06:28:55.921Z,88.06
2023-01-19T06:29:28.761Z,88.14
2023-01-19T06:30:01.640Z,88.17
2023-01-19T06:30:36.595Z,88.67
2023-01-19T06:31:08.889Z,88.43
2023-01-19T06:31:41.289Z,88.61
2023-01-19T06:32:16.067Z,88.72
2023-01-19T06:32:48.198Z,89.05
2023-01-19T06:33:20.692Z,88.96
2023-01-19T06:33:55.507Z,89.12
2023-01-19T06:34:29.153Z,89.31
2023-01-19T06:35:03.000Z,89.04
2023-01-19T06:35:37.895Z,89.20
2023-01-19T06:36:10.323Z,89.27
2023-01-19T06:36:42.549Z,89.16
2023-01-19T06:37:17.984Z,88.89
2023-01-19T06:37:50.335Z,88.88
2023-01-19T06:38:23.374Z,88.79
2023-01-19T06:38:58.377Z,88.89
2023-01-19T06:39:30.470Z,89.06
2023-01-19T06:40:07.267Z,88.60
2023-01-19T06:40:45.146Z,88.50
2023-01-19T06:41:17.203Z,88.86
2023-01-19T06:41:51.994Z,89.09
2023-01-19T06:42:24.123Z,88.53
2023-01-19T06:43:04.275Z,88.73
2023-01-19T06:43:36.648Z,89.01
2023-01-19T06:44:11.565Z,89.06
2023-01-19T06:44:47.633Z,89.14
2023-01-19T06:45:19.832Z,88.73
2023-01-19T06:45:52.248Z,89.05
2023-01-19T06:46:29.800Z,88.74
2023-01-19T06:47:15.002Z,88.89
2023-01-19T06:47:51.904Z,88.70
2023-01-19T06:48:24.664Z,88.75
2023-01-19T06:48:57.111Z,88.81
2023-01-19T06:49:31.825Z,88.64
2023-01-19T06:50:04.247Z,89.23
2023-01-19T06:50:39.017Z,89.12
2023-01-19T06:51:14.837Z,89.16
2023-01-19T06:51:49.947Z,89.39
2023-01-19T06:52:22.707Z,88.70
2023-01-19T06:52:55.117Z,89.20
2023-01-19T06:53:34.565Z,89.16
2023-01-19T06:54:09.369Z,88.85
2023-01-19T06:54:45.458Z,88.73
2023-01-19T06:55:17.851Z,88.41
2023-01-19T06:55:52.872Z,88.22
2023-01-19T06:56:27.731Z,88.49
2023-01-19T06:57:07.719Z,88.51
2023-01-19T06:57:48.828Z,88.30
2023-01-19T06:58:26.368Z,88.20
2023-01-19T06:59:01.189Z,88.25
2023-01-19T06:59:33.361Z,87.82
2023-01-19T07:00:08.977Z,87.96
2023-01-19T07:00:43.966Z,87.99
2023-01-19T07:01:16.687Z,87.75
2023-01-19T07:01:51.542Z,87.35
2023-01-19T07:02:27.794Z,87.31
2023-01-19T07:03:01.018Z,87.60
2023-01-19T07:03:37.367Z,87.31
2023-01-19T07:04:10.757Z,87.06
2023-01-19T07:04:42.862Z,86.95
2023-01-19T07:05:17.735Z,87.22
2023-01-19T07:05:52.297Z,86.90
2023-01-19T07:06:27.567Z,86.65
2023-01-19T07:06:59.725Z,86.48
2023-01-19T07:07:42.695Z,86.84
2023-01-19T07:08:17.974Z,87.19
2023-01-19T07:08:57.507Z,87.31
2023-01-19T07:11:25.006Z,87.79
2023-01-19T07:11:25.361Z,87.68
2023-01-19T07:11:48.360Z,87.61
2023-01-19T07:12:20.620Z,87.38
2023-01-19T07:12:55.387Z,87.22
2023-01-19T07:13:30.702Z,86.46
2023-01-19T07:14:04.140Z,86.73
2023-01-19T07:14:38.822Z,86.39
2023-01-19T07:15:11.909Z,86.20
2023-01-19T07:15:46.690Z,85.88
2023-01-19T07:16:18.993Z,85.99
2023-01-19T07:16:55.503Z,85.55
2023-01-19T07:17:32.473Z,85.51
2023-01-19T07:18:07.775Z,85.42
2023-01-19T07:18:43.786Z,85.06
2023-01-19T07:19:36.983Z,84.93
2023-01-19T07:20:14.506Z,84.57
2023-01-19T07:20:49.278Z,84.44
2023-01-19T07:21:25.078Z,83.84
2023-01-19T07:21:58.406Z,83.67
2023-01-19T07:22:30.549Z,83.49
2023-01-19T07:23:05.708Z,83.36
2023-01-19T07:23:38.691Z,83.05
2023-01-19T07:24:13.374Z,83.09
2023-01-19T07:24:45.479Z,82.84
2023-01-19T07:25:17.633Z,82.94
2023-01-19T07:25:52.460Z,82.97
2023-01-19T07:26:25.446Z,82.69
2023-01-19T07:27:00.147Z,82.98
2023-01-19T07:27:32.263Z,82.96
2023-01-19T07:28:07.295Z,82.46
2023-01-19T07:28:42.002Z,82.06
2023-01-19T07:29:16.859Z,81.91
2023-01-19T07:29:48.979Z,82.02
2023-01-19T07:30:23.960Z,82.35
2023-01-19T07:30:59.789Z,82.01
2023-01-19T07:31:34.693Z,81.88
2023-01-19T07:32:07.672Z,81.63
2023-01-19T07:32:42.701Z,81.77
2023-01-19T07:33:14.894Z,81.98
2023-01-19T07:33:47.434Z,81.97
2023-01-19T07:34:22.357Z,81.62
2023-01-19T07:34:54.570Z,81.91
2023-01-19T07:35:27.228Z,81.89
2023-01-19T07:36:02.002Z,81.61
2023-01-19T07:36:34.189Z,81.84
2023-01-19T07:37:06.308Z,81.86
2023-01-19T07:37:41.081Z,82.01
2023-01-19T07:38:13.282Z,81.94
2023-01-19T07:38:48.024Z,81.81
2023-01-19T07:39:20.224Z,81.04
2023-01-19T07:39:52.364Z,81.31
2023-01-19T07:40:27.164Z,81.83
2023-01-19T07:41:03.629Z,81.51
2023-01-19T07:41:38.299Z,81.54
2023-01-19T07:42:12.670Z,81.59
2023-01-19T07:42:52.135Z,81.87
2023-01-19T07:43:24.268Z,81.62
2023-01-19T07:43:58.998Z,81.41
2023-01-19T07:44:33.643Z,81.44
2023-01-19T07:45:06.876Z,81.30
2023-01-19T07:45:42.146Z,80.93
2023-01-19T07:46:14.674Z,81.28
2023-01-19T07:46:46.818Z,81.29
2023-01-19T07:47:21.719Z,81.11
2023-01-19T07:47:53.860Z,80.67
2023-01-19T07:48:30.565Z,80.65
2023-01-19T07:49:02.791Z,80.71
2023-01-19T07:49:35.636Z,80.91
2023-01-19T07:50:12.252Z,80.54
2023-01-19T07:50:44.940Z,80.55
2023-01-19T07:51:19.004Z,80.66
2023-01-19T07:51:56.366Z,80.89
2023-01-19T07:52:28.477Z,80.60
2023-01-19T07:53:08.227Z,80.19
2023-01-19T07:53:42.009Z,80.48
2023-01-19T07:54:14.255Z,80.53
2023-01-19T07:54:50.992Z,80.35
2023-01-19T07:55:24.276Z,80.36
2023-01-19T07:55:56.944Z,80.33
2023-01-19T07:56:33.933Z,80.26
2023-01-19T07:57:06.265Z,80.59
2023-01-19T07:57:41.055Z,80.18
2023-01-19T07:58:13.202Z,80.36
2023-01-19T07:58:50.038Z,80.40
2023-01-19T07:59:25.104Z,80.48
2023-01-19T07:59:57.519Z,80.85
2023-01-19T08:00:33.260Z,80.76
2023-01-19T08:01:07.529Z,80.44
2023-01-19T08:01:40.491Z,80.40
2023-01-19T08:02:16.446Z,80.34
2023-01-19T08:02:51.297Z,80.74
2023-01-19T08:03:26.090Z,80.74
2023-01-19T08:03:58.176Z,80.69
2023-01-19T08:04:32.991Z,80.29
2023-01-19T08:05:05.959Z,80.39
2023-01-19T08:05:38.486Z,80.76
2023-01-19T08:06:19.954Z,80.58
2023-01-19T08:06:52.373Z,80.36
2023-01-19T08:07:24.613Z,80.44
2023-01-19T08:08:00.556Z,80.68
2023-01-19T08:08:32.977Z,80.55
2023-01-19T08:09:08.591Z,80.71
2023-01-19T08:09:40.932Z,80.52
2023-01-19T08:10:17.146Z,80.68
2023-01-19T08:10:50.751Z,80.66
2023-01-19T08:11:22.921Z,80.79
2023-01-19T08:11:57.795Z,80.17
2023-01-19T08:12:30.251Z,80.71
2023-01-19T08:13:04.942Z,80.28
2023-01-19T08:13:37.083Z,80.46
2023-01-19T08:14:09.496Z,80.55
2023-01-19T08:14:47.048Z,80.35
2023-01-19T08:15:19.186Z,80.45
2023-01-19T08:15:52.253Z,80.10
2023-01-19T08:16:27.156Z,80.65
2023-01-19T08:16:59.959Z,80.41
2023-01-19T08:17:32.181Z,80.30
2023-01-19T08:18:09.848Z,80.52
2023-01-19T08:18:42.680Z,80.56
2023-01-19T08:19:14.810Z,80.19
2023-01-19T08:19:49.540Z,80.41
2023-01-19T08:20:23.385Z,80.16
2023-01-19T08:20:58.308Z,80.22
2023-01-19T08:21:30.625Z,80.46
2023-01-19T08:22:06.076Z,80.57
2023-01-19T08:22:38.324Z,80.33
2023-01-19T08:23:13.332Z,80.06
2023-01-19T08:23:51.804Z,80.29
2023-01-19T08:24:28.692Z,80.22
2023-01-19T08:25:00.889Z,80.38
2023-01-19T08:25:34.356Z,80.51
2023-01-19T08:26:21.362Z,80.07
2023-01-19T08:26:59.400Z,80.32
2023-01-19T08:27:34.228Z,80.41
2023-01-19T08:28:07.375Z,80.44
2023-01-19T08:28:42.130Z,80.65
2023-01-19T08:29:14.300Z,80.45
2023-01-19T08:29:51.598Z,80.26
2023-01-19T08:30:26.808Z,80.54
2023-01-19T08:31:11.253Z,80.25
2023-01-19T08:31:55.686Z,80.74
2023-01-19T08:32:27.924Z,80.22
2023-01-19T08:33:08.354Z,80.36
2023-01-19T08:33:40.353Z,80.84
2023-01-19T08:34:15.068Z,80.72
2023-01-19T08:34:47.247Z,80.83
2023-01-19T08:35:19.345Z,80.66
2023-01-19T08:35:56.612Z,81.13
2023-01-19T08:36:28.818Z,81.03
2023-01-19T08:37:03.561Z,80.77
2023-01-19T08:37:35.811Z,80.73
2023-01-19T08:38:09.638Z,80.88
2023-01-19T08:38:45.073Z,81.13
2023-01-19T08:39:18.306Z,80.90
2023-01-19T08:39:54.029Z,80.96
2023-01-19T08:40:26.756Z,81.59
2023-01-19T08:40:58.916Z,81.65
2023-01-19T08:41:33.645Z,81.42
2023-01-19T08:42:05.880Z,81.62
2023-01-19T08:42:38.046Z,81.59
2023-01-19T08:43:15.390Z,81.99
2023-01-19T08:43:47.760Z,81.58
2023-01-19T08:44:20.056Z,81.72
2023-01-19T08:44:58.293Z,81.79
2023-01-19T08:45:31.240Z,81.88
2023-01-19T08:46:03.888Z,81.87
2023-01-19T08:46:38.715Z,81.52
2023-01-19T08:47:10.881Z,81.74
2023-01-19T08:47:45.490Z,81.48
2023-01-19T08:48:22.213Z,81.75
2023-01-19T08:48:55.045Z,81.56
2023-01-19T08:49:30.559Z,81.69
2023-01-19T08:50:02.733Z,81.82
2023-01-19T08:50:37.918Z,81.94
2023-01-19T08:51:10.139Z,81.93
2023-01-19T08:51:46.996Z,82.05
2023-01-19T08:52:19.213Z,82.05
2023-01-19T08:52:52.009Z,82.28
2023-01-19T08:53:26.984Z,82.04
2023-01-19T08:53:59.121Z,82.14
2023-01-19T08:54:33.911Z,82.24
2023-01-19T08:55:08.053Z,82.22
2023-01-19T08:55:40.795Z,82.04
2023-01-19T08:56:16.384Z,82.50
2023-01-19T08:56:48.691Z,82.52
2023-01-19T08:57:23.415Z,82.66
2023-01-19T08:57:58.205Z,82.12
2023-01-19T08:58:30.539Z,82.53
2023-01-19T08:59:09.936Z,82.65
2023-01-19T08:59:42.584Z,82.42
2023-01-19T09:00:18.970Z,82.89
2023-01-19T09:00:53.757Z,82.47
2023-01-19T09:01:26.033Z,82.64
2023-01-19T09:02:00.906Z,82.78
2023-01-19T09:02:33.170Z,82.73
2023-01-19T09:03:09.572Z,82.73
2023-01-19T09:03:41.820Z,82.91
2023-01-19T09:04:16.549Z,82.94
2023-01-19T09:04:49.005Z,82.90
2023-01-19T09:05:23.811Z,82.89
2023-01-19T09:05:56.056Z,83.03
2023-01-19T09:06:28.553Z,82.92
2023-01-19T09:07:03.329Z,82.88
2023-01-19T09:07:35.806Z,83.46
2023-01-19T09:08:10.295Z,83.39
2023-01-19T09:08:45.239Z,83.45
2023-01-19T09:09:19.736Z,83.23
2023-01-19T09:09:51.902Z,83.56
2023-01-19T09:10:26.675Z,83.15
2023-01-19T09:10:59.133Z,83.07
2023-01-19T09:11:35.131Z,83.33
2023-01-19T09:12:07.628Z,83.21
2023-01-19T09:12:39.932Z,83.11
2023-01-19T09:13:15.479Z,83.12
2023-01-19T09:13:47.658Z,83.28
2023-01-19T09:14:22.471Z,83.37
2023-01-19T09:14:55.191Z,83.19
2023-01-19T09:15:30.015Z,83.05
2023-01-19T09:16:07.764Z,83.51
2023-01-19T09:16:40.046Z,83.17
2023-01-19T09:17:14.902Z,83.60
2023-01-19T09:17:46.983Z,83.33
2023-01-19T09:18:21.325Z,83.46
2023-01-19T09:18:56.254Z,83.38
2023-01-19T09:19:28.422Z,83.29
2023-01-19T09:20:00.654Z,83.34
2023-01-19T09:20:36.852Z,83.10
2023-01-19T09:21:09.611Z,83.40
2023-01-19T09:21:44.453Z,82.91
2023-01-19T09:22:16.707Z,83.20
2023-01-19T09:22:48.947Z,83.21
2023-01-19T09:23:23.920Z,82.88
2023-01-19T09:23:56.419Z,83.24
2023-01-19T09:24:31.145Z,82.99
2023-01-19T09:25:03.248Z,83.55
2023-01-19T09:25:37.966Z,83.38
2023-01-19T09:26:10.452Z,83.34
2023-01-19T09:26:45.156Z,83.34
2023-01-19T09:27:17.313Z,83.45
2023-01-19T09:27:49.464Z,83.69
2023-01-19T09:28:24.314Z,83.60
2023-01-19T09:28:56.515Z,83.66
2023-01-19T09:29:28.683Z,83.16
2023-01-19T09:30:03.394Z,83.42
2023-01-19T09:30:39.520Z,83.44
2023-01-19T09:31:11.818Z,83.54
2023-01-19T09:31:46.694Z,83.76
2023-01-19T09:32:19.567Z,83.50
2023-01-19T09:32:51.684Z,83.50
2023-01-19T09:33:27.937Z,83.65
2023-01-19T09:34:00.262Z,84.00
2023-01-19T09:34:34.952Z,83.85
2023-01-19T09:35:07.539Z,83.73
2023-01-19T09:35:40.983Z,84.05
2023-01-19T09:36:15.735Z,84.11
2023-01-19T09:36:47.967Z,84.14
2023-01-19T09:37:20.106Z,84.25
2023-01-19T09:37:54.965Z,84.34
2023-01-19T09:38:31.595Z,84.11
2023-01-19T09:39:06.947Z,84.44
2023-01-19T09:39:39.185Z,84.31
2023-01-19T09:40:12.918Z,84.17
2023-01-19T09:40:51.890Z,84.02
2023-01-19T09:41:26.188Z,84.08
2023-01-19T09:42:08.037Z,84.34
2023-01-19T09:42:43.865Z,84.66
2023-01-19T09:43:24.243Z,84.56
2023-01-19T09:43:59.629Z,84.40
2023-01-19T09:44:38.318Z,84.55
2023-01-19T09:45:16.924Z,84.55
2023-01-19T09:45:59.736Z,84.96
2023-01-19T09:46:39.954Z,84.93
2023-01-19T09:47:18.329Z,84.89
2023-01-19T09:47:54.101Z,84.74
2023-01-19T09:48:33.618Z,85.19
2023-01-19T09:49:15.644Z,85.05
2023-01-19T09:49:53.904Z,85.32
2023-01-19T09:50:34.193Z,85.13
2023-01-19T09:51:12.258Z,84.86
2023-01-19T09:51:49.736Z,84.96
2023-01-19T09:52:22.513Z,84.71
2023-01-19T09:52:57.502Z,85.22
2023-01-19T09:53:44.945Z,84.96
2023-01-19T09:54:19.489Z,85.20
2023-01-19T09:54:57.756Z,85.09
2023-01-19T09:55:30.997Z,84.84
2023-01-19T09:56:05.786Z,84.92
2023-01-19T09:56:38.696Z,85.18
2023-01-19T09:57:14.926Z,85.19
2023-01-19T09:57:47.130Z,84.93
2023-01-19T09:58:22.267Z,84.88
2023-01-19T09:58:54.477Z,85.04
2023-01-19T09:59:32.024Z,85.16
2023-01-19T11:40:14.464Z,92.17
2023-01-19T11:40:52.970Z,92.10
2023-01-19T11:41:31.979Z,92.13
2023-01-19T11:42:06.426Z,92.29
2023-01-19T11:42:41.406Z,92.02
2023-01-19T11:43:14.090Z,92.24
2023-01-19T11:43:51.790Z,92.30
2023-01-19T11:44:29.370Z,92.49
2023-01-19T11:45:07.847Z,93.14
2023-01-19T11:45:40.297Z,93.24
2023-01-19T11:46:16.073Z,93.42
2023-01-19T11:46:54.123Z,93.68
2023-01-19T11:47:33.306Z,93.42
2023-01-19T11:48:07.519Z,93.77
2023-01-19T11:48:47.855Z,93.73
2023-01-19T11:49:26.424Z,93.93
2023-01-19T11:50:05.547Z,94.04
2023-01-19T11:50:42.746Z,94.50
2023-01-19T11:51:22.937Z,94.29
2023-01-19T11:52:02.452Z,94.05
2023-01-19T11:52:43.162Z,94.45
2023-01-19T11:53:22.547Z,94.46
2023-01-19T11:53:57.275Z,94.23
2023-01-19T11:54:35.024Z,94.24
2023-01-19T11:55:21.370Z,94.41
2023-01-19T11:55:57.296Z,94.41
2023-01-19T11:56:32.407Z,94.03
2023-01-19T11:57:12.194Z,94.07
2023-01-19T11:57:50.702Z,94.40
2023-01-19T11:58:24.223Z,93.93
2023-01-19T11:58:59.483Z,93.82
2023-01-19T11:59:31.584Z,94.09
2023-01-19T12:00:20.290Z,93.95
2023-01-19T12:00:58.037Z,94.15
2023-01-19T12:01:35.897Z,94.25
2023-01-19T12:02:17.837Z,94.19
2023-01-19T12:02:56.380Z,93.65
2023-01-19T12:03:33.221Z,93.91
2023-01-19T12:04:15.740Z,93.60
2023-01-19T12:04:50.332Z,93.96
2023-01-19T12:05:29.806Z,93.74
2023-01-19T12:06:05.893Z,93.53
2023-01-19T12:06:44.760Z,93.81
2023-01-19T12:07:23.924Z,93.57
2023-01-19T12:08:02.569Z,93.82
2023-01-19T12:08:39.940Z,93.62
2023-01-19T12:09:17.921Z,93.43
2023-01-19T12:09:54.116Z,93.73
2023-01-19T12:10:35.873Z,93.73
2023-01-19T12:11:11.214Z,93.34
2023-01-19T12:11:49.255Z,93.61
2023-01-19T12:12:29.057Z,93.76
2023-01-19T12:13:04.500Z,93.83
2023-01-19T12:13:37.641Z,93.58
2023-01-19T12:14:22.180Z,93.52
2023-01-19T12:15:00.948Z,93.20
2023-01-19T12:15:41.054Z,93.48
2023-01-19T12:16:19.894Z,93.49
2023-01-19T12:16:59.581Z,93.66
2023-01-19T12:17:36.109Z,93.53
2023-01-19T12:18:18.977Z,93.59
2023-01-19T12:18:55.801Z,93.26
2023-01-19T12:19:45.771Z,93.89
2023-01-19T12:20:27.141Z,93.51
2023-01-19T12:21:03.991Z,93.61
2023-01-19T12:21:36.956Z,93.31
2023-01-19T12:22:16.836Z,93.87
2023-01-19T12:22:55.631Z,93.90
2023-01-19T12:23:52.749Z,93.68
2023-01-19T12:24:35.948Z,93.58
2023-01-19T12:25:21.651Z,93.69
2023-01-19T12:26:07.285Z,93.93
2023-01-19T12:26:51.676Z,93.91
2023-01-19T12:27:36.393Z,93.77
2023-01-19T12:28:15.407Z,93.87
2023-01-19T12:28:50.046Z,93.73
2023-01-19T12:29:27.452Z,93.68
2023-01-19T12:30:00.003Z,93.88
2023-01-19T12:30:35.059Z,93.32
2023-01-19T12:31:08.494Z,93.72
2023-01-19T12:31:44.943Z,93.64
2023-01-19T12:32:18.934Z,93.58
2023-01-19T12:32:51.481Z,93.69
2023-01-19T12:33:36.945Z,93.50
2023-01-19T12:34:42.310Z,93.52
2023-01-19T12:35:44.399Z,93.81
2023-01-19T12:36:41.174Z,94.14
2023-01-19T12:37:33.818Z,93.74
2023-01-19T12:38:45.028Z,94.08
2023-01-19T12:39:19.092Z,93.72
2023-01-19T12:39:53.827Z,93.72
2023-01-19T12:40:28.097Z,93.76
2023-01-19T12:41:26.045Z,93.77
2023-01-19T12:42:16.967Z,93.94
2023-01-19T12:42:59.367Z,93.75
2023-01-19T12:43:34.162Z,94.04
2023-01-19T12:44:34.409Z,93.97
2023-01-19T12:45:13.830Z,93.72
2023-01-19T12:45:49.199Z,93.58
2023-01-19T12:46:29.338Z,93.82
2023-01-19T12:47:21.196Z,93.88
2023-01-19T12:47:56.864Z,94.12
2023-01-19T12:48:35.277Z,94.08
2023-01-19T12:49:12.910Z,94.21
2023-01-19T12:49:49.801Z,93.93
2023-01-19T12:50:25.833Z,94.10
2023-01-19T12:51:00.668Z,94.03
2023-01-19T12:51:33.341Z,94.09
2023-01-19T12:52:17.886Z,94.21
2023-01-19T12:52:57.504Z,94.03
2023-01-19T12:53:30.992Z,93.95
2023-01-19T12:54:07.993Z,94.06
2023-01-19T12:54:53.028Z,93.75
2023-01-19T12:55:31.081Z,93.97